Weather at Prop Stop Airport

Public forecast

Using degrees Fahrenheit for public forecast. Weather courtesy of forecast.io.

Closest aviation weather report (METAR) to Prop Stop Airport

Closest report is St Landry Parish Ahart Field, 14.2 nm (26.3 km) ENE.

2023/09/29 19:55 (retrieved 25 minutes ago)

KOPL 291955Z AUTO 11008G15KT 10SM CLR 32/19 A2996 RMK AO2 T03170188

Closest aviation forecast (TAF) to Prop Stop Airport

Closest forecast is Lafayette Regional Airport, 22.6 nm (41.9 km) SE.

2023/09/29 18:39 (retrieved 2 hours ago)

TAF KLFT 291736Z 2918/3018 08008KT P6SM SCT030 FM300100 VRB03KT P6SM SKC FM301000 VRB03KT 5SM BR SKC FM301400 08007G15KT P6SM SKC